sensor_id;sensor_type;location;lat;lon;timestamp;temperature;humidity
23289;DHT22;11813;50.834;4.280;2022-09-09T00:04:01;17.00;99.90
23289;DHT22;11813;50.834;4.280;2022-09-09T00:06:43;17.10;99.90
23289;DHT22;11813;50.834;4.280;2022-09-09T00:09:17;17.10;99.90
23289;DHT22;11813;50.834;4.280;2022-09-09T00:11:51;17.10;99.90
23289;DHT22;11813;50.834;4.280;2022-09-09T00:14:29;17.10;99.90
23289;DHT22;11813;50.834;4.280;2022-09-09T00:17:02;16.90;99.90
23289;DHT22;11813;50.834;4.280;2022-09-09T00:22:21;17.00;99.90
23289;DHT22;11813;50.834;4.280;2022-09-09T00:27:59;16.90;99.90
23289;DHT22;11813;50.834;4.280;2022-09-09T00:30:28;16.90;99.90
23289;DHT22;11813;50.834;4.280;2022-09-09T00:33:01;16.90;99.90
23289;DHT22;11813;50.834;4.280;2022-09-09T00:35:34;16.90;99.90
23289;DHT22;11813;50.834;4.280;2022-09-09T00:49:51;16.70;99.90
23289;DHT22;11813;50.834;4.280;2022-09-09T00:52:27;16.60;99.90
23289;DHT22;11813;50.834;4.280;2022-09-09T00:55:39;16.70;99.90
23289;DHT22;11813;50.834;4.280;2022-09-09T00:58:08;16.60;99.90
23289;DHT22;11813;50.834;4.280;2022-09-09T01:00:46;16.60;99.90
23289;DHT22;11813;50.834;4.280;2022-09-09T01:03:27;16.60;99.90
23289;DHT22;11813;50.834;4.280;2022-09-09T01:12:09;16.80;99.90
23289;DHT22;11813;50.834;4.280;2022-09-09T01:14:40;16.70;99.90
23289;DHT22;11813;50.834;4.280;2022-09-09T01:20:02;16.80;99.90
23289;DHT22;11813;50.834;4.280;2022-09-09T01:25:26;16.70;99.90
23289;DHT22;11813;50.834;4.280;2022-09-09T01:28:00;16.70;99.90
23289;DHT22;11813;50.834;4.280;2022-09-09T01:30:26;16.60;99.90
23289;DHT22;11813;50.834;4.280;2022-09-09T01:32:57;16.50;99.90
23289;DHT22;11813;50.834;4.280;2022-09-09T01:38:13;16.70;99.90
23289;DHT22;11813;50.834;4.280;2022-09-09T01:40:39;16.70;99.90
23289;DHT22;11813;50.834;4.280;2022-09-09T01:43:05;16.60;99.90
23289;DHT22;11813;50.834;4.280;2022-09-09T01:45:32;16.50;99.90
23289;DHT22;11813;50.834;4.280;2022-09-09T01:47:58;16.50;99.90
23289;DHT22;11813;50.834;4.280;2022-09-09T01:50:24;16.60;99.90
23289;DHT22;11813;50.834;4.280;2022-09-09T01:52:54;16.50;99.90
23289;DHT22;11813;50.834;4.280;2022-09-09T01:55:31;16.40;99.90
23289;DHT22;11813;50.834;4.280;2022-09-09T01:58:28;16.30;99.90
23289;DHT22;11813;50.834;4.280;2022-09-09T02:01:11;16.40;99.90
23289;DHT22;11813;50.834;4.280;2022-09-09T02:03:38;16.40;99.90
23289;DHT22;11813;50.834;4.280;2022-09-09T02:06:19;16.40;99.90
23289;DHT22;11813;50.834;4.280;2022-09-09T02:08:52;16.30;99.90
23289;DHT22;11813;50.834;4.280;2022-09-09T02:11:20;16.30;99.90
23289;DHT22;11813;50.834;4.280;2022-09-09T02:13:48;16.40;99.90
23289;DHT22;11813;50.834;4.280;2022-09-09T02:19:14;16.10;99.90
23289;DHT22;11813;50.834;4.280;2022-09-09T02:21:43;16.20;99.90
23289;DHT22;11813;50.834;4.280;2022-09-09T02:24:12;16.20;99.90
23289;DHT22;11813;50.834;4.280;2022-09-09T02:26:42;16.30;99.90
23289;DHT22;11813;50.834;4.280;2022-09-09T02:29:14;16.20;99.90
23289;DHT22;11813;50.834;4.280;2022-09-09T02:31:41;16.30;99.90
23289;DHT22;11813;50.834;4.280;2022-09-09T02:34:09;16.20;99.90
23289;DHT22;11813;50.834;4.280;2022-09-09T02:36:37;16.30;99.90
23289;DHT22;11813;50.834;4.280;2022-09-09T02:39:06;16.20;99.90
23289;DHT22;11813;50.834;4.280;2022-09-09T02:41:34;16.20;99.90
23289;DHT22;11813;50.834;4.280;2022-09-09T02:44:00;16.30;99.90
23289;DHT22;11813;50.834;4.280;2022-09-09T02:54:10;16.20;99.90
23289;DHT22;11813;50.834;4.280;2022-09-09T02:56:42;16.40;99.90
23289;DHT22;11813;50.834;4.280;2022-09-09T02:59:09;16.30;99.90
23289;DHT22;11813;50.834;4.280;2022-09-09T03:01:35;16.30;99.90
23289;DHT22;11813;50.834;4.280;2022-09-09T03:04:02;16.20;99.90
23289;DHT22;11813;50.834;4.280;2022-09-09T03:06:30;16.20;99.90
23289;DHT22;11813;50.834;4.280;2022-09-09T03:08:56;16.20;99.90
23289;DHT22;11813;50.834;4.280;2022-09-09T03:11:22;16.30;99.90
23289;DHT22;11813;50.834;4.280;2022-09-09T03:13:48;16.40;99.90
23289;DHT22;11813;50.834;4.280;2022-09-09T03:16:14;16.30;99.90
23289;DHT22;11813;50.834;4.280;2022-09-09T03:18:40;16.40;99.90
23289;DHT22;11813;50.834;4.280;2022-09-09T03:21:06;16.30;99.90
23289;DHT22;11813;50.834;4.280;2022-09-09T03:23:32;16.30;99.90
23289;DHT22;11813;50.834;4.280;2022-09-09T03:25:57;16.20;99.90
23289;DHT22;11813;50.834;4.280;2022-09-09T03:28:24;16.20;99.90
23289;DHT22;11813;50.834;4.280;2022-09-09T03:30:58;16.10;99.90
23289;DHT22;11813;50.834;4.280;2022-09-09T03:33:24;16.20;99.90
23289;DHT22;11813;50.834;4.280;2022-09-09T03:35:50;16.20;99.90
23289;DHT22;11813;50.834;4.280;2022-09-09T03:38:16;16.20;99.90
23289;DHT22;11813;50.834;4.280;2022-09-09T03:40:49;16.10;99.90
23289;DHT22;11813;50.834;4.280;2022-09-09T03:43:15;16.10;99.90
23289;DHT22;11813;50.834;4.280;2022-09-09T03:45:45;16.30;99.90
23289;DHT22;11813;50.834;4.280;2022-09-09T03:48:12;16.20;99.90
23289;DHT22;11813;50.834;4.280;2022-09-09T03:50:38;16.20;99.90
23289;DHT22;11813;50.834;4.280;2022-09-09T03:53:04;16.20;99.90
23289;DHT22;11813;50.834;4.280;2022-09-09T03:55:31;16.20;99.90
23289;DHT22;11813;50.834;4.280;2022-09-09T03:57:57;16.00;99.90
23289;DHT22;11813;50.834;4.280;2022-09-09T04:00:23;16.10;99.90
23289;DHT22;11813;50.834;4.280;2022-09-09T04:02:49;16.00;99.90
23289;DHT22;11813;50.834;4.280;2022-09-09T04:05:15;16.10;99.90
23289;DHT22;11813;50.834;4.280;2022-09-09T04:07:40;16.20;99.90
23289;DHT22;11813;50.834;4.280;2022-09-09T04:10:07;16.20;99.90
23289;DHT22;11813;50.834;4.280;2022-09-09T04:12:33;16.20;99.90
23289;DHT22;11813;50.834;4.280;2022-09-09T04:15:00;16.20;99.90
23289;DHT22;11813;50.834;4.280;2022-09-09T04:17:27;16.20;99.90
23289;DHT22;11813;50.834;4.280;2022-09-09T04:19:53;16.20;99.90
23289;DHT22;11813;50.834;4.280;2022-09-09T04:22:18;16.10;99.90
23289;DHT22;11813;50.834;4.280;2022-09-09T04:24:44;16.00;99.90
23289;DHT22;11813;50.834;4.280;2022-09-09T04:27:09;16.00;99.90
23289;DHT22;11813;50.834;4.280;2022-09-09T04:29:35;16.00;99.90
23289;DHT22;11813;50.834;4.280;2022-09-09T04:32:01;16.10;99.90
23289;DHT22;11813;50.834;4.280;2022-09-09T04:34:26;16.00;99.90
23289;DHT22;11813;50.834;4.280;2022-09-09T04:36:52;15.90;99.90
23289;DHT22;11813;50.834;4.280;2022-09-09T04:39:17;16.00;99.90
23289;DHT22;11813;50.834;4.280;2022-09-09T04:41:43;16.00;99.90
23289;DHT22;11813;50.834;4.280;2022-09-09T04:44:08;15.90;99.90
23289;DHT22;11813;50.834;4.280;2022-09-09T04:46:35;15.90;99.90
23289;DHT22;11813;50.834;4.280;2022-09-09T04:49:00;15.90;99.90
23289;DHT22;11813;50.834;4.280;2022-09-09T04:51:26;15.90;99.90
23289;DHT22;11813;50.834;4.280;2022-09-09T04:53:52;15.80;99.90
23289;DHT22;11813;50.834;4.280;2022-09-09T04:56:19;15.90;99.90
23289;DHT22;11813;50.834;4.280;2022-09-09T04:58:44;15.70;99.90
23289;DHT22;11813;50.834;4.280;2022-09-09T05:01:21;15.70;99.90
23289;DHT22;11813;50.834;4.280;2022-09-09T05:03:47;15.80;99.90
23289;DHT22;11813;50.834;4.280;2022-09-09T05:06:18;15.90;99.90
23289;DHT22;11813;50.834;4.280;2022-09-09T05:08:44;15.90;99.90
23289;DHT22;11813;50.834;4.280;2022-09-09T05:11:30;15.80;99.90
23289;DHT22;11813;50.834;4.280;2022-09-09T05:13:57;15.90;99.90
23289;DHT22;11813;50.834;4.280;2022-09-09T05:16:23;15.90;99.90
23289;DHT22;11813;50.834;4.280;2022-09-09T05:18:49;15.90;99.90
23289;DHT22;11813;50.834;4.280;2022-09-09T05:21:17;16.00;99.90
23289;DHT22;11813;50.834;4.280;2022-09-09T05:23:44;15.90;99.90
23289;DHT22;11813;50.834;4.280;2022-09-09T05:26:13;15.90;99.90
23289;DHT22;11813;50.834;4.280;2022-09-09T05:28:39;15.90;99.90
23289;DHT22;11813;50.834;4.280;2022-09-09T05:31:07;16.00;99.90
23289;DHT22;11813;50.834;4.280;2022-09-09T05:33:38;16.00;99.90
23289;DHT22;11813;50.834;4.280;2022-09-09T05:36:08;16.00;99.90
23289;DHT22;11813;50.834;4.280;2022-09-09T05:38:34;16.00;99.90
23289;DHT22;11813;50.834;4.280;2022-09-09T05:41:02;16.10;99.90
23289;DHT22;11813;50.834;4.280;2022-09-09T05:43:28;16.00;99.90
23289;DHT22;11813;50.834;4.280;2022-09-09T05:46:03;15.90;99.90
23289;DHT22;11813;50.834;4.280;2022-09-09T05:48:30;16.00;99.90
23289;DHT22;11813;50.834;4.280;2022-09-09T05:50:56;16.00;99.90
23289;DHT22;11813;50.834;4.280;2022-09-09T05:53:22;16.10;99.90
23289;DHT22;11813;50.834;4.280;2022-09-09T05:55:48;16.20;99.90
23289;DHT22;11813;50.834;4.280;2022-09-09T05:58:14;16.20;99.90
23289;DHT22;11813;50.834;4.280;2022-09-09T06:00:42;16.30;99.90
23289;DHT22;11813;50.834;4.280;2022-09-09T06:03:11;16.30;99.90
23289;DHT22;11813;50.834;4.280;2022-09-09T06:05:36;16.30;99.90
23289;DHT22;11813;50.834;4.280;2022-09-09T06:08:03;16.20;99.90
23289;DHT22;11813;50.834;4.280;2022-09-09T06:10:28;16.30;99.90
23289;DHT22;11813;50.834;4.280;2022-09-09T06:12:54;16.30;99.90
23289;DHT22;11813;50.834;4.280;2022-09-09T06:15:20;16.30;99.90
23289;DHT22;11813;50.834;4.280;2022-09-09T06:17:46;16.40;99.90
23289;DHT22;11813;50.834;4.280;2022-09-09T06:20:12;16.40;99.90
23289;DHT22;11813;50.834;4.280;2022-09-09T06:22:40;16.40;99.90
23289;DHT22;11813;50.834;4.280;2022-09-09T06:25:08;16.40;99.90
23289;DHT22;11813;50.834;4.280;2022-09-09T06:27:33;16.50;99.90
23289;DHT22;11813;50.834;4.280;2022-09-09T06:29:59;16.50;99.90
23289;DHT22;11813;50.834;4.280;2022-09-09T06:32:24;16.60;99.90
23289;DHT22;11813;50.834;4.280;2022-09-09T06:34:52;16.60;99.90
23289;DHT22;11813;50.834;4.280;2022-09-09T06:37:18;16.60;99.90
23289;DHT22;11813;50.834;4.280;2022-09-09T06:39:44;16.60;99.90
23289;DHT22;11813;50.834;4.280;2022-09-09T06:42:09;16.60;99.90
23289;DHT22;11813;50.834;4.280;2022-09-09T06:44:35;16.50;99.90
23289;DHT22;11813;50.834;4.280;2022-09-09T06:47:01;16.50;99.90
23289;DHT22;11813;50.834;4.280;2022-09-09T06:49:27;16.70;99.90
23289;DHT22;11813;50.834;4.280;2022-09-09T06:51:52;16.70;99.90
23289;DHT22;11813;50.834;4.280;2022-09-09T06:54:18;16.70;99.90
23289;DHT22;11813;50.834;4.280;2022-09-09T06:56:45;16.60;99.90
23289;DHT22;11813;50.834;4.280;2022-09-09T06:59:11;16.60;99.90
23289;DHT22;11813;50.834;4.280;2022-09-09T07:01:42;16.60;99.90
23289;DHT22;11813;50.834;4.280;2022-09-09T07:04:09;16.70;99.90
23289;DHT22;11813;50.834;4.280;2022-09-09T07:06:44;16.70;99.90
23289;DHT22;11813;50.834;4.280;2022-09-09T07:09:12;16.60;99.90
23289;DHT22;11813;50.834;4.280;2022-09-09T07:11:43;16.70;99.90
23289;DHT22;11813;50.834;4.280;2022-09-09T07:14:10;16.70;99.90
23289;DHT22;11813;50.834;4.280;2022-09-09T07:16:38;16.70;99.90
23289;DHT22;11813;50.834;4.280;2022-09-09T07:19:04;16.80;99.90
23289;DHT22;11813;50.834;4.280;2022-09-09T07:21:31;16.80;99.90
23289;DHT22;11813;50.834;4.280;2022-09-09T07:23:57;16.80;99.90
23289;DHT22;11813;50.834;4.280;2022-09-09T07:26:25;16.80;99.90
23289;DHT22;11813;50.834;4.280;2022-09-09T07:28:51;16.80;99.90
23289;DHT22;11813;50.834;4.280;2022-09-09T07:31:20;16.80;99.90
23289;DHT22;11813;50.834;4.280;2022-09-09T07:33:47;16.90;99.90
23289;DHT22;11813;50.834;4.280;2022-09-09T07:38:50;16.80;99.90
23289;DHT22;11813;50.834;4.280;2022-09-09T07:41:25;16.80;99.90
23289;DHT22;11813;50.834;4.280;2022-09-09T07:43:52;16.90;99.90
23289;DHT22;11813;50.834;4.280;2022-09-09T07:46:20;16.90;99.90
23289;DHT22;11813;50.834;4.280;2022-09-09T07:48:54;16.90;99.90
23289;DHT22;11813;50.834;4.280;2022-09-09T07:51:23;16.80;99.90
23289;DHT22;11813;50.834;4.280;2022-09-09T07:53:53;16.80;99.90
23289;DHT22;11813;50.834;4.280;2022-09-09T07:56:19;16.90;99.90
23289;DHT22;11813;50.834;4.280;2022-09-09T07:58:48;16.90;99.90
23289;DHT22;11813;50.834;4.280;2022-09-09T08:01:21;17.00;99.90
23289;DHT22;11813;50.834;4.280;2022-09-09T08:03:53;17.10;99.90
23289;DHT22;11813;50.834;4.280;2022-09-09T08:06:19;17.00;99.90
23289;DHT22;11813;50.834;4.280;2022-09-09T08:08:49;17.10;99.90
23289;DHT22;11813;50.834;4.280;2022-09-09T08:11:15;17.20;99.90
23289;DHT22;11813;50.834;4.280;2022-09-09T08:13:42;17.30;99.90
23289;DHT22;11813;50.834;4.280;2022-09-09T08:16:11;17.30;99.90
23289;DHT22;11813;50.834;4.280;2022-09-09T08:18:37;17.20;99.90
23289;DHT22;11813;50.834;4.280;2022-09-09T08:21:11;17.30;99.90
23289;DHT22;11813;50.834;4.280;2022-09-09T08:23:38;17.30;99.90
23289;DHT22;11813;50.834;4.280;2022-09-09T08:26:15;17.40;99.90
23289;DHT22;11813;50.834;4.280;2022-09-09T08:28:43;17.30;99.90
23289;DHT22;11813;50.834;4.280;2022-09-09T08:31:21;17.20;99.90
23289;DHT22;11813;50.834;4.280;2022-09-09T08:33:47;17.20;99.90
23289;DHT22;11813;50.834;4.280;2022-09-09T08:36:20;17.20;99.90
23289;DHT22;11813;50.834;4.280;2022-09-09T08:38:54;17.20;99.90
23289;DHT22;11813;50.834;4.280;2022-09-09T08:52:21;17.10;99.90
23289;DHT22;11813;50.834;4.280;2022-09-09T08:54:47;17.10;99.90
23289;DHT22;11813;50.834;4.280;2022-09-09T08:57:23;17.10;99.90
23289;DHT22;11813;50.834;4.280;2022-09-09T08:59:54;17.20;99.90
23289;DHT22;11813;50.834;4.280;2022-09-09T09:02:22;17.10;99.90
23289;DHT22;11813;50.834;4.280;2022-09-09T09:12:38;17.10;99.90
23289;DHT22;11813;50.834;4.280;2022-09-09T09:15:18;17.10;99.90
23289;DHT22;11813;50.834;4.280;2022-09-09T09:17:44;17.00;99.90
23289;DHT22;11813;50.834;4.280;2022-09-09T09:20:14;16.90;99.90
23289;DHT22;11813;50.834;4.280;2022-09-09T09:22:50;17.00;99.90
23289;DHT22;11813;50.834;4.280;2022-09-09T09:25:22;16.90;99.90
23289;DHT22;11813;50.834;4.280;2022-09-09T09:27:58;17.00;99.90
23289;DHT22;11813;50.834;4.280;2022-09-09T09:30:36;17.10;99.90
23289;DHT22;11813;50.834;4.280;2022-09-09T09:35:57;17.00;99.90
23289;DHT22;11813;50.834;4.280;2022-09-09T09:38:26;17.00;99.90
23289;DHT22;11813;50.834;4.280;2022-09-09T09:40:55;17.10;99.90
23289;DHT22;11813;50.834;4.280;2022-09-09T09:43:37;17.10;99.90
23289;DHT22;11813;50.834;4.280;2022-09-09T09:46:16;17.10;99.90
23289;DHT22;11813;50.834;4.280;2022-09-09T09:48:43;17.10;99.90
23289;DHT22;11813;50.834;4.280;2022-09-09T09:51:13;17.10;99.90
23289;DHT22;11813;50.834;4.280;2022-09-09T09:53:41;17.20;99.90
23289;DHT22;11813;50.834;4.280;2022-09-09T09:56:10;17.30;99.90
23289;DHT22;11813;50.834;4.280;2022-09-09T09:58:50;17.20;99.90
23289;DHT22;11813;50.834;4.280;2022-09-09T10:01:22;17.30;99.90
23289;DHT22;11813;50.834;4.280;2022-09-09T10:03:59;17.30;99.90
23289;DHT22;11813;50.834;4.280;2022-09-09T10:06:35;17.30;99.90
23289;DHT22;11813;50.834;4.280;2022-09-09T10:09:02;17.20;99.90
23289;DHT22;11813;50.834;4.280;2022-09-09T10:11:50;17.20;99.90
23289;DHT22;11813;50.834;4.280;2022-09-09T10:14:30;17.30;99.90
23289;DHT22;11813;50.834;4.280;2022-09-09T10:17:20;17.40;99.90
23289;DHT22;11813;50.834;4.280;2022-09-09T10:20:12;17.40;99.90
23289;DHT22;11813;50.834;4.280;2022-09-09T10:22:45;17.40;99.90
23289;DHT22;11813;50.834;4.280;2022-09-09T10:28:30;17.70;99.90
23289;DHT22;11813;50.834;4.280;2022-09-09T10:36:43;18.30;99.90
23289;DHT22;11813;50.834;4.280;2022-09-09T10:42:12;18.70;99.90
23289;DHT22;11813;50.834;4.280;2022-09-09T10:47:38;18.80;99.90
23289;DHT22;11813;50.834;4.280;2022-09-09T10:50:40;18.80;99.90
23289;DHT22;11813;50.834;4.280;2022-09-09T10:53:33;18.90;99.90
23289;DHT22;11813;50.834;4.280;2022-09-09T10:56:07;18.90;99.90
23289;DHT22;11813;50.834;4.280;2022-09-09T10:58:42;19.10;99.90
23289;DHT22;11813;50.834;4.280;2022-09-09T11:01:18;19.00;99.90
23289;DHT22;11813;50.834;4.280;2022-09-09T11:03:52;18.90;99.90
23289;DHT22;11813;50.834;4.280;2022-09-09T11:06:20;18.80;99.90
23289;DHT22;11813;50.834;4.280;2022-09-09T11:08:49;18.70;99.90
23289;DHT22;11813;50.834;4.280;2022-09-09T11:13:54;18.80;99.90
23289;DHT22;11813;50.834;4.280;2022-09-09T11:16:25;18.80;99.90
23289;DHT22;11813;50.834;4.280;2022-09-09T11:19:02;18.80;99.90
23289;DHT22;11813;50.834;4.280;2022-09-09T11:21:32;18.70;99.90
23289;DHT22;11813;50.834;4.280;2022-09-09T11:24:06;18.60;99.90
23289;DHT22;11813;50.834;4.280;2022-09-09T11:26:45;18.60;99.90
23289;DHT22;11813;50.834;4.280;2022-09-09T11:29:20;18.60;99.90
23289;DHT22;11813;50.834;4.280;2022-09-09T11:34:21;18.70;99.90
23289;DHT22;11813;50.834;4.280;2022-09-09T11:40:24;18.60;99.90
23289;DHT22;11813;50.834;4.280;2022-09-09T11:42:30;18.50;99.90
23289;DHT22;11813;50.834;4.280;2022-09-09T11:44:56;18.60;99.90
23289;DHT22;11813;50.834;4.280;2022-09-09T11:47:29;18.60;99.90
23289;DHT22;11813;50.834;4.280;2022-09-09T11:52:42;18.70;99.90
23289;DHT22;11813;50.834;4.280;2022-09-09T11:55:33;18.70;99.90
23289;DHT22;11813;50.834;4.280;2022-09-09T11:58:04;18.70;99.90
23289;DHT22;11813;50.834;4.280;2022-09-09T12:00:31;18.70;99.90
23289;DHT22;11813;50.834;4.280;2022-09-09T12:02:58;18.70;99.90
23289;DHT22;11813;50.834;4.280;2022-09-09T12:05:39;18.50;99.90
23289;DHT22;11813;50.834;4.280;2022-09-09T12:08:06;18.60;99.90
23289;DHT22;11813;50.834;4.280;2022-09-09T12:10:40;18.60;99.90
23289;DHT22;11813;50.834;4.280;2022-09-09T12:13:20;18.70;99.90
23289;DHT22;11813;50.834;4.280;2022-09-09T12:15:56;18.80;99.90
23289;DHT22;11813;50.834;4.280;2022-09-09T12:18:40;18.70;99.90
23289;DHT22;11813;50.834;4.280;2022-09-09T12:24:13;18.70;99.90
23289;DHT22;11813;50.834;4.280;2022-09-09T12:26:47;18.80;99.90
23289;DHT22;11813;50.834;4.280;2022-09-09T12:31:58;18.80;99.90
23289;DHT22;11813;50.834;4.280;2022-09-09T12:34:47;18.90;99.90
23289;DHT22;11813;50.834;4.280;2022-09-09T12:37:36;18.90;99.90
23289;DHT22;11813;50.834;4.280;2022-09-09T12:40:18;19.10;99.90
23289;DHT22;11813;50.834;4.280;2022-09-09T12:42:44;19.20;99.90
23289;DHT22;11813;50.834;4.280;2022-09-09T12:45:18;19.30;99.90
23289;DHT22;11813;50.834;4.280;2022-09-09T12:47:48;19.50;99.90
23289;DHT22;11813;50.834;4.280;2022-09-09T12:50:30;19.60;99.90
23289;DHT22;11813;50.834;4.280;2022-09-09T12:53:06;19.70;99.90
23289;DHT22;11813;50.834;4.280;2022-09-09T12:55:36;19.70;99.90
23289;DHT22;11813;50.834;4.280;2022-09-09T12:58:04;19.80;99.90
23289;DHT22;11813;50.834;4.280;2022-09-09T13:00:32;19.60;99.90
23289;DHT22;11813;50.834;4.280;2022-09-09T13:03:13;19.60;99.90
23289;DHT22;11813;50.834;4.280;2022-09-09T13:05:42;19.60;99.90
23289;DHT22;11813;50.834;4.280;2022-09-09T13:08:12;19.60;99.90
23289;DHT22;11813;50.834;4.280;2022-09-09T13:10:47;19.90;99.90
23289;DHT22;11813;50.834;4.280;2022-09-09T13:13:21;20.10;99.90
23289;DHT22;11813;50.834;4.280;2022-09-09T13:15:52;20.00;99.90
23289;DHT22;11813;50.834;4.280;2022-09-09T13:18:34;19.90;99.90
23289;DHT22;11813;50.834;4.280;2022-09-09T13:21:00;19.90;99.90
23289;DHT22;11813;50.834;4.280;2022-09-09T13:23:34;20.10;99.90
23289;DHT22;11813;50.834;4.280;2022-09-09T13:26:06;20.30;99.90
23289;DHT22;11813;50.834;4.280;2022-09-09T13:28:33;20.40;99.90
23289;DHT22;11813;50.834;4.280;2022-09-09T13:31:04;20.40;99.90
23289;DHT22;11813;50.834;4.280;2022-09-09T13:33:31;20.40;99.90
23289;DHT22;11813;50.834;4.280;2022-09-09T13:38:24;20.50;99.90
23289;DHT22;11813;50.834;4.280;2022-09-09T13:41:03;20.90;99.90
23289;DHT22;11813;50.834;4.280;2022-09-09T13:43:34;21.20;99.90
23289;DHT22;11813;50.834;4.280;2022-09-09T13:46:04;21.50;99.90
23289;DHT22;11813;50.834;4.280;2022-09-09T13:48:30;21.80;99.90
23289;DHT22;11813;50.834;4.280;2022-09-09T13:51:04;21.70;99.90
23289;DHT22;11813;50.834;4.280;2022-09-09T13:53:31;21.60;99.90
23289;DHT22;11813;50.834;4.280;2022-09-09T13:55:57;21.60;99.90
23289;DHT22;11813;50.834;4.280;2022-09-09T13:58:24;21.60;99.90
23289;DHT22;11813;50.834;4.280;2022-09-09T14:00:52;21.80;99.90
23289;DHT22;11813;50.834;4.280;2022-09-09T14:03:18;21.40;99.90
23289;DHT22;11813;50.834;4.280;2022-09-09T14:05:44;21.40;99.90
23289;DHT22;11813;50.834;4.280;2022-09-09T14:08:16;21.30;99.90
23289;DHT22;11813;50.834;4.280;2022-09-09T14:10:44;21.50;99.90
23289;DHT22;11813;50.834;4.280;2022-09-09T14:13:10;21.50;99.90
23289;DHT22;11813;50.834;4.280;2022-09-09T14:15:37;21.20;99.90
23289;DHT22;11813;50.834;4.280;2022-09-09T14:18:03;21.20;99.90
23289;DHT22;11813;50.834;4.280;2022-09-09T14:20:29;21.20;99.90
23289;DHT22;11813;50.834;4.280;2022-09-09T14:22:54;21.00;99.90
23289;DHT22;11813;50.834;4.280;2022-09-09T14:25:20;20.80;99.90
23289;DHT22;11813;50.834;4.280;2022-09-09T14:27:45;20.80;99.90
23289;DHT22;11813;50.834;4.280;2022-09-09T14:30:11;21.00;99.90
23289;DHT22;11813;50.834;4.280;2022-09-09T14:32:37;21.10;99.90
23289;DHT22;11813;50.834;4.280;2022-09-09T14:35:03;21.20;99.90
23289;DHT22;11813;50.834;4.280;2022-09-09T14:37:29;21.20;99.90
23289;DHT22;11813;50.834;4.280;2022-09-09T14:39:56;21.20;99.90
23289;DHT22;11813;50.834;4.280;2022-09-09T14:42:22;21.10;99.90
23289;DHT22;11813;50.834;4.280;2022-09-09T14:44:48;21.20;99.90
23289;DHT22;11813;50.834;4.280;2022-09-09T14:47:14;21.30;99.90
23289;DHT22;11813;50.834;4.280;2022-09-09T14:49:40;21.40;99.90
23289;DHT22;11813;50.834;4.280;2022-09-09T14:52:05;21.70;99.90
23289;DHT22;11813;50.834;4.280;2022-09-09T14:54:31;21.80;99.90
23289;DHT22;11813;50.834;4.280;2022-09-09T14:56:57;21.70;99.90
23289;DHT22;11813;50.834;4.280;2022-09-09T14:59:23;21.80;99.90
23289;DHT22;11813;50.834;4.280;2022-09-09T15:01:49;21.60;99.90
23289;DHT22;11813;50.834;4.280;2022-09-09T15:04:15;21.50;99.90
23289;DHT22;11813;50.834;4.280;2022-09-09T15:06:42;21.50;99.90
23289;DHT22;11813;50.834;4.280;2022-09-09T15:09:10;21.60;99.90
23289;DHT22;11813;50.834;4.280;2022-09-09T15:11:37;21.40;99.90
23289;DHT22;11813;50.834;4.280;2022-09-09T15:14:04;21.40;99.90
23289;DHT22;11813;50.834;4.280;2022-09-09T15:16:30;21.40;99.90
23289;DHT22;11813;50.834;4.280;2022-09-09T15:18:58;21.60;99.90
23289;DHT22;11813;50.834;4.280;2022-09-09T15:21:26;21.50;99.90
23289;DHT22;11813;50.834;4.280;2022-09-09T15:23:53;21.30;99.90
23289;DHT22;11813;50.834;4.280;2022-09-09T15:26:19;21.20;99.90
23289;DHT22;11813;50.834;4.280;2022-09-09T15:28:45;21.10;99.90
23289;DHT22;11813;50.834;4.280;2022-09-09T15:31:23;20.90;99.90
23289;DHT22;11813;50.834;4.280;2022-09-09T15:33:51;20.80;99.90
23289;DHT22;11813;50.834;4.280;2022-09-09T15:36:19;20.70;99.90
23289;DHT22;11813;50.834;4.280;2022-09-09T15:38:45;20.70;99.90
23289;DHT22;11813;50.834;4.280;2022-09-09T15:41:13;21.00;99.90
23289;DHT22;11813;50.834;4.280;2022-09-09T15:43:42;21.20;99.90
23289;DHT22;11813;50.834;4.280;2022-09-09T15:46:37;21.30;99.90
23289;DHT22;11813;50.834;4.280;2022-09-09T15:49:24;21.40;99.90
23289;DHT22;11813;50.834;4.280;2022-09-09T15:52:00;21.40;99.90
23289;DHT22;11813;50.834;4.280;2022-09-09T15:54:32;21.40;99.90
23289;DHT22;11813;50.834;4.280;2022-09-09T15:57:01;21.30;99.90
23289;DHT22;11813;50.834;4.280;2022-09-09T15:59:30;21.30;99.90
23289;DHT22;11813;50.834;4.280;2022-09-09T16:01:56;21.20;99.90
23289;DHT22;11813;50.834;4.280;2022-09-09T16:04:23;21.10;99.90
23289;DHT22;11813;50.834;4.280;2022-09-09T16:06:51;21.20;99.90
23289;DHT22;11813;50.834;4.280;2022-09-09T16:09:17;21.00;99.90
23289;DHT22;11813;50.834;4.280;2022-09-09T16:11:42;21.00;99.90
23289;DHT22;11813;50.834;4.280;2022-09-09T16:14:08;21.00;99.90
23289;DHT22;11813;50.834;4.280;2022-09-09T16:16:34;21.00;99.90
23289;DHT22;11813;50.834;4.280;2022-09-09T16:19:04;20.90;99.90
23289;DHT22;11813;50.834;4.280;2022-09-09T16:21:36;20.50;99.90
23289;DHT22;11813;50.834;4.280;2022-09-09T16:24:03;20.20;99.90
23289;DHT22;11813;50.834;4.280;2022-09-09T16:26:33;19.90;99.90
23289;DHT22;11813;50.834;4.280;2022-09-09T16:28:59;19.80;99.90
23289;DHT22;11813;50.834;4.280;2022-09-09T16:31:27;20.00;99.90
23289;DHT22;11813;50.834;4.280;2022-09-09T16:33:53;20.50;99.90
23289;DHT22;11813;50.834;4.280;2022-09-09T16:36:21;21.60;99.90
23289;DHT22;11813;50.834;4.280;2022-09-09T16:38:52;23.00;99.90
23289;DHT22;11813;50.834;4.280;2022-09-09T16:41:19;24.00;99.90
23289;DHT22;11813;50.834;4.280;2022-09-09T16:43:45;23.80;99.90
23289;DHT22;11813;50.834;4.280;2022-09-09T16:46:16;23.10;99.90
23289;DHT22;11813;50.834;4.280;2022-09-09T16:48:44;22.50;99.90
23289;DHT22;11813;50.834;4.280;2022-09-09T16:51:28;22.10;99.90
23289;DHT22;11813;50.834;4.280;2022-09-09T16:53:55;22.00;99.90
23289;DHT22;11813;50.834;4.280;2022-09-09T16:56:24;21.70;99.90
23289;DHT22;11813;50.834;4.280;2022-09-09T16:58:58;21.50;99.90
23289;DHT22;11813;50.834;4.280;2022-09-09T17:01:26;21.20;99.90
23289;DHT22;11813;50.834;4.280;2022-09-09T17:03:56;21.00;99.90
23289;DHT22;11813;50.834;4.280;2022-09-09T17:06:23;20.80;99.90
23289;DHT22;11813;50.834;4.280;2022-09-09T17:08:57;20.60;99.90
23289;DHT22;11813;50.834;4.280;2022-09-09T17:11:24;20.60;99.90
23289;DHT22;11813;50.834;4.280;2022-09-09T17:13:50;20.60;99.90
23289;DHT22;11813;50.834;4.280;2022-09-09T17:16:18;20.60;99.90
23289;DHT22;11813;50.834;4.280;2022-09-09T17:18:45;20.40;99.90
23289;DHT22;11813;50.834;4.280;2022-09-09T17:21:19;20.10;99.90
23289;DHT22;11813;50.834;4.280;2022-09-09T17:23:45;19.90;99.90
23289;DHT22;11813;50.834;4.280;2022-09-09T17:26:14;19.80;99.90
23289;DHT22;11813;50.834;4.280;2022-09-09T17:28:41;19.80;99.90
23289;DHT22;11813;50.834;4.280;2022-09-09T17:31:10;19.80;99.90